createdAt,value
2023-03-10T00:01:38.439Z,98637.54
2023-03-10T00:04:07.217Z,98635.23
2023-03-10T00:06:39.399Z,98630.55
2023-03-10T00:09:11.771Z,98624.80
2023-03-10T00:11:48.936Z,98624.89
2023-03-10T00:14:20.501Z,98613.13
2023-03-10T00:16:52.161Z,98613.01
2023-03-10T00:19:26.722Z,98608.15
2023-03-10T00:22:02.212Z,98598.34
2023-03-10T00:24:36.063Z,98600.46
2023-03-10T00:27:06.136Z,98597.45
2023-03-10T00:29:45.017Z,98592.26
2023-03-10T00:32:16.866Z,98592.58
2023-03-10T00:34:45.897Z,98590.26
2023-03-10T00:37:16.319Z,98586.23
2023-03-10T00:39:45.782Z,98587.64
2023-03-10T00:42:15.158Z,98584.27
2023-03-10T00:44:56.556Z,98578.05
2023-03-10T00:47:27.766Z,98568.90
2023-03-10T00:49:57.117Z,98568.02
2023-03-10T00:52:28.768Z,98565.18
2023-03-10T00:55:07.698Z,98556.38
2023-03-10T00:57:43.014Z,98547.69
2023-03-10T01:00:15.398Z,98547.66
2023-03-10T01:02:45.297Z,98538.80
2023-03-10T01:05:16.166Z,98528.74
2023-03-10T01:07:45.022Z,98526.36
2023-03-10T01:10:15.894Z,98520.05
2023-03-10T01:12:44.595Z,98513.02
2023-03-10T01:15:16.425Z,98509.91
2023-03-10T01:17:47.466Z,98506.45
2023-03-10T01:20:17.697Z,98499.22
2023-03-10T01:22:46.665Z,98503.05
2023-03-10T01:25:15.827Z,98507.52
2023-03-10T01:27:44.682Z,98504.36
2023-03-10T01:30:16.347Z,98499.13
2023-03-10T01:32:49.385Z,98494.08
2023-03-10T01:35:18.133Z,98492.17
2023-03-10T01:37:50.266Z,98484.46
2023-03-10T01:40:22.071Z,98482.56
2023-03-10T01:42:50.766Z,98479.27
2023-03-10T01:45:21.733Z,98473.56
2023-03-10T01:47:53.266Z,98463.17
2023-03-10T01:50:23.197Z,98460.52
2023-03-10T01:52:57.950Z,98453.73
2023-03-10T01:55:41.110Z,98448.76
2023-03-10T01:58:17.458Z,98433.46
2023-03-10T02:00:54.383Z,98427.88
2023-03-10T02:03:34.605Z,98420.45
2023-03-10T02:06:10.893Z,98427.80
2023-03-10T02:09:01.681Z,98431.00
2023-03-10T02:11:30.553Z,98419.06
2023-03-10T02:14:04.163Z,98411.77
2023-03-10T02:16:37.363Z,98407.80
2023-03-10T02:19:11.909Z,98395.91
2023-03-10T02:22:12.227Z,98398.23
2023-03-10T02:25:58.402Z,98400.33
2023-03-10T02:28:40.175Z,98402.58
2023-03-10T02:31:10.816Z,98396.75
2023-03-10T02:33:44.296Z,98388.89
2023-03-10T02:36:27.177Z,98384.12
2023-03-10T02:39:07.788Z,98376.65
2023-03-10T02:41:44.298Z,98372.45
2023-03-10T02:44:23.916Z,98366.52
2023-03-10T02:46:52.644Z,98362.13
2023-03-10T02:49:27.671Z,98366.31
2023-03-10T02:51:59.463Z,98363.10
2023-03-10T02:54:28.005Z,98355.10
2023-03-10T02:56:59.874Z,98355.45
2023-03-10T02:59:29.188Z,98350.05
2023-03-10T03:01:59.063Z,98346.83
2023-03-10T03:04:31.669Z,98341.04
2023-03-10T03:07:06.858Z,98339.27
2023-03-10T03:09:50.200Z,98340.15
2023-03-10T03:12:21.102Z,98342.58
2023-03-10T03:15:05.919Z,98328.70
2023-03-10T03:17:41.854Z,98323.09
2023-03-10T03:20:20.565Z,98318.14
2023-03-10T03:22:50.421Z,98306.36
2023-03-10T03:25:24.057Z,98301.98
2023-03-10T03:27:55.844Z,98302.39
2023-03-10T03:30:28.767Z,98288.69
2023-03-10T03:33:05.725Z,98279.62
2023-03-10T03:35:36.953Z,98263.30
2023-03-10T03:38:11.301Z,98259.12
2023-03-10T03:40:40.948Z,98250.08
2023-03-10T03:43:12.679Z,98244.23
2023-03-10T03:45:44.679Z,98242.04
2023-03-10T03:48:17.140Z,98235.45
2023-03-10T03:50:48.003Z,98235.30
2023-03-10T03:53:24.897Z,98235.33
2023-03-10T03:55:56.730Z,98231.33
2023-03-10T03:58:26.525Z,98223.38
2023-03-10T04:00:58.881Z,98219.86
2023-03-10T04:03:35.282Z,98218.29
2023-03-10T04:06:10.636Z,98213.09
2023-03-10T04:08:40.103Z,98209.98
2023-03-10T04:11:10.785Z,98205.87
2023-03-10T04:13:44.241Z,98205.51
2023-03-10T04:16:13.490Z,98206.02
2023-03-10T04:18:54.739Z,98200.56
2023-03-10T04:21:23.858Z,98202.61
2023-03-10T04:23:53.678Z,98201.07
2023-03-10T04:26:26.293Z,98198.46
2023-03-10T04:29:01.178Z,98198.27
2023-03-10T04:31:38.945Z,98201.05
2023-03-10T04:34:10.374Z,98200.55
2023-03-10T04:36:44.283Z,98193.95
2023-03-10T04:39:16.180Z,98186.31
2023-03-10T04:41:54.676Z,98177.91
2023-03-10T04:44:31.809Z,98169.98
2023-03-10T04:47:02.872Z,98170.55
2023-03-10T04:49:34.318Z,98162.59
2023-03-10T04:52:06.990Z,98156.48
2023-03-10T04:54:47.063Z,98153.52
2023-03-10T04:57:20.037Z,98153.42
2023-03-10T04:59:51.088Z,98151.39
2023-03-10T05:02:25.251Z,98152.77
2023-03-10T05:04:56.504Z,98158.20
2023-03-10T05:07:27.062Z,98157.08
2023-03-10T05:10:02.252Z,98152.23
2023-03-10T05:12:39.267Z,98145.92
2023-03-10T05:15:11.833Z,98144.59
2023-03-10T05:17:51.306Z,98137.58
2023-03-10T05:20:20.796Z,98129.66
2023-03-10T05:22:49.780Z,98126.91
2023-03-10T05:25:29.818Z,98126.98
2023-03-10T05:28:03.580Z,98122.47
2023-03-10T05:30:32.488Z,98113.42
2023-03-10T05:33:08.805Z,98107.00
2023-03-10T05:35:39.023Z,98096.00
2023-03-10T05:38:11.836Z,98098.23
2023-03-10T05:40:44.283Z,98101.81
2023-03-10T05:43:17.760Z,98101.29
2023-03-10T05:45:58.593Z,98101.31
2023-03-10T05:48:29.187Z,98100.75
2023-03-10T05:51:07.953Z,98096.69
2023-03-10T05:53:40.769Z,98093.84
2023-03-10T05:56:22.794Z,98088.77
2023-03-10T05:58:55.140Z,98086.26
2023-03-10T06:01:30.785Z,98085.88
2023-03-10T06:04:00.091Z,98085.52
2023-03-10T06:06:33.210Z,98089.23
2023-03-10T06:09:02.400Z,98089.63
2023-03-10T06:11:35.941Z,98091.05
2023-03-10T06:14:04.777Z,98092.45
2023-03-10T06:16:33.341Z,98091.42
2023-03-10T06:19:02.355Z,98081.34
2023-03-10T06:21:39.542Z,98077.64
2023-03-10T06:24:11.922Z,98069.05
2023-03-10T06:26:45.925Z,98058.49
2023-03-10T06:29:14.435Z,98054.67
2023-03-10T06:31:43.065Z,98051.50
2023-03-10T06:34:12.325Z,98052.70
2023-03-10T06:36:41.265Z,98045.95
2023-03-10T06:39:12.971Z,98036.39
2023-03-10T06:41:41.408Z,98032.69
2023-03-10T06:44:09.768Z,98037.02
2023-03-10T06:46:38.952Z,98040.18
2023-03-10T06:49:07.534Z,98039.48
2023-03-10T06:51:36.172Z,98038.04
2023-03-10T06:54:09.983Z,98035.79
2023-03-10T06:56:39.313Z,98037.69
2023-03-10T06:59:22.707Z,98041.30
2023-03-10T07:01:58.364Z,98042.70
2023-03-10T07:04:32.794Z,98049.95
2023-03-10T07:07:09.073Z,98056.55
2023-03-10T07:09:42.552Z,98055.44
2023-03-10T07:12:12.859Z,98050.93
2023-03-10T07:14:43.947Z,98046.55
2023-03-10T07:17:14.513Z,98041.73
2023-03-10T07:19:43.611Z,98038.67
2023-03-10T07:22:14.512Z,98040.04
2023-03-10T07:24:43.075Z,98034.21
2023-03-10T07:27:13.745Z,98032.84
2023-03-10T07:29:43.767Z,98032.20
2023-03-10T07:32:12.506Z,98026.02
2023-03-10T07:34:41.476Z,98025.61
2023-03-10T07:37:13.546Z,98018.29
2023-03-10T07:39:42.074Z,98016.13
2023-03-10T07:42:10.888Z,98011.77
2023-03-10T07:44:39.532Z,98011.38
2023-03-10T07:47:11.785Z,98014.25
2023-03-10T07:49:46.294Z,98013.85
2023-03-10T07:52:18.633Z,98011.79
2023-03-10T07:54:50.686Z,98010.66
2023-03-10T07:57:22.460Z,98003.63
2023-03-10T07:59:56.145Z,97998.23
2023-03-10T08:02:24.806Z,97995.86
2023-03-10T08:04:53.135Z,97995.95
2023-03-10T08:07:22.279Z,97992.21
2023-03-10T08:09:52.133Z,97987.11
2023-03-10T08:12:36.782Z,97983.68
2023-03-10T08:15:15.317Z,97982.10
2023-03-10T08:17:49.956Z,97980.46
2023-03-10T08:20:24.001Z,97985.94
2023-03-10T08:23:02.675Z,97984.55
2023-03-10T08:25:31.282Z,97983.52
2023-03-10T08:28:02.521Z,97986.80
2023-03-10T08:30:31.231Z,97991.85
2023-03-10T08:32:59.707Z,97989.29
2023-03-10T08:35:34.273Z,97993.23
2023-03-10T08:38:05.504Z,97989.06
2023-03-10T08:40:34.053Z,97991.08
2023-03-10T08:43:02.631Z,97985.08
2023-03-10T08:45:34.907Z,97979.14
2023-03-10T08:48:09.803Z,97978.10
2023-03-10T08:50:41.933Z,97977.67
2023-03-10T08:53:12.484Z,97981.32
2023-03-10T08:55:44.902Z,97980.98
2023-03-10T08:58:13.153Z,97977.00
2023-03-10T09:00:42.531Z,97974.61
2023-03-10T09:03:11.656Z,97973.91
2023-03-10T09:05:43.867Z,97974.73
2023-03-10T09:08:19.172Z,97970.90
2023-03-10T09:10:49.202Z,97966.10
2023-03-10T09:13:21.862Z,97965.24
2023-03-10T09:15:53.307Z,97968.90
2023-03-10T09:18:22.475Z,97976.98
2023-03-10T09:20:57.160Z,97977.99
2023-03-10T09:23:29.492Z,97981.82
2023-03-10T09:26:05.120Z,97976.17
2023-03-10T09:28:41.283Z,97978.24
2023-03-10T09:31:27.209Z,97974.03
2023-03-10T09:34:05.548Z,97973.38
2023-03-10T09:36:35.179Z,97977.58
2023-03-10T09:39:27.471Z,97978.80
2023-03-10T09:42:38.469Z,97985.77
2023-03-10T09:45:48.005Z,97985.19
2023-03-10T09:49:03.289Z,97984.78
2023-03-10T09:51:43.885Z,97986.19
2023-03-10T09:54:46.673Z,97987.77
2023-03-10T09:57:23.633Z,97987.05
2023-03-10T10:00:02.675Z,97986.86
2023-03-10T10:02:47.407Z,97980.73
2023-03-10T10:05:31.990Z,97977.84
2023-03-10T10:08:21.944Z,97978.16
2023-03-10T10:10:57.728Z,97982.14
2023-03-10T10:13:36.028Z,97978.33
2023-03-10T10:16:41.365Z,97977.30
2023-03-10T10:19:22.303Z,97980.68
2023-03-10T10:22:16.845Z,97985.71
2023-03-10T10:25:14.723Z,97986.08
2023-03-10T10:27:47.510Z,97988.91
2023-03-10T10:30:42.361Z,97988.69
2023-03-10T10:33:16.026Z,97987.84
2023-03-10T10:36:06.819Z,97986.52
2023-03-10T10:38:50.258Z,97982.67
2023-03-10T10:41:40.394Z,97983.98
2023-03-10T10:44:18.547Z,97982.94
2023-03-10T10:47:02.278Z,97981.82
2023-03-10T10:49:41.879Z,97977.86
2023-03-10T10:52:31.710Z,97975.08
2023-03-10T10:55:27.788Z,97970.37
2023-03-10T10:58:14.020Z,97961.17
2023-03-10T11:01:12.277Z,97955.07
2023-03-10T11:03:48.644Z,97954.98
2023-03-10T11:06:35.262Z,97951.30
2023-03-10T11:09:18.210Z,97950.41
2023-03-10T11:12:02.082Z,97949.56
2023-03-10T11:15:01.527Z,97942.76
2023-03-10T11:17:59.335Z,97943.83
2023-03-10T11:20:48.897Z,97931.55
2023-03-10T11:23:37.741Z,97931.15
2023-03-10T11:26:34.874Z,97934.23
2023-03-10T11:29:34.796Z,97934.68
2023-03-10T11:32:35.903Z,97933.20
2023-03-10T11:35:38.419Z,97929.00
2023-03-10T11:38:41.153Z,97928.48
2023-03-10T11:41:27.295Z,97922.61
2023-03-10T11:44:09.447Z,97926.81
2023-03-10T11:46:56.519Z,97928.77
2023-03-10T11:49:40.321Z,97924.64
2023-03-10T11:52:25.035Z,97922.45
2023-03-10T11:55:16.284Z,97917.61
2023-03-10T11:58:05.147Z,97920.60
2023-03-10T12:00:52.471Z,97925.55
2023-03-10T12:04:04.091Z,97926.45
2023-03-10T12:06:52.247Z,97931.87
2023-03-10T12:09:45.886Z,97935.89
2023-03-10T12:12:34.694Z,97934.31
2023-03-10T12:15:15.733Z,97930.52
2023-03-10T12:17:46.870Z,97927.81
2023-03-10T12:20:19.959Z,97931.58
2023-03-10T12:22:50.506Z,97929.99
2023-03-10T12:25:32.299Z,97924.33
2023-03-10T12:28:16.094Z,97928.89
2023-03-10T12:31:02.563Z,97930.72
2023-03-10T12:33:34.064Z,97929.56
2023-03-10T12:36:34.481Z,97932.90
2023-03-10T12:39:30.859Z,97937.60
2023-03-10T12:42:26.520Z,97936.11
2023-03-10T12:45:14.121Z,97935.85
2023-03-10T12:48:01.997Z,97937.82
2023-03-10T12:50:49.836Z,97936.95
2023-03-10T12:53:37.417Z,97936.63
2023-03-10T12:56:11.892Z,97937.20
2023-03-10T12:58:52.734Z,97936.52
2023-03-10T13:01:31.297Z,97934.39
2023-03-10T13:04:16.305Z,97935.01
2023-03-10T13:06:47.581Z,97937.23
2023-03-10T13:09:47.159Z,97936.88
2023-03-10T13:12:42.604Z,97936.52
2023-03-10T13:15:25.016Z,97941.27
2023-03-10T13:18:20.885Z,97935.55
2023-03-10T13:20:51.966Z,97929.80
2023-03-10T13:23:36.450Z,97926.33
2023-03-10T13:26:19.620Z,97921.00
2023-03-10T13:29:03.265Z,97919.92
2023-03-10T13:31:35.529Z,97920.05
2023-03-10T13:34:21.705Z,97919.98
2023-03-10T13:36:50.394Z,97918.67
2023-03-10T13:39:27.272Z,97913.74
2023-03-10T13:42:01.675Z,97907.53
2023-03-10T13:44:49.757Z,97904.68
2023-03-10T13:47:26.586Z,97904.42
2023-03-10T13:49:59.598Z,97905.38
2023-03-10T13:52:32.699Z,97909.96
2023-03-10T13:55:17.088Z,97911.92
2023-03-10T13:57:50.069Z,97910.52
2023-03-10T14:00:22.731Z,97911.80
2023-03-10T14:02:57.245Z,97907.75
2023-03-10T14:05:45.438Z,97908.50
2023-03-10T14:08:29.467Z,97907.05
2023-03-10T14:11:41.364Z,97906.67
2023-03-10T14:14:11.602Z,97904.63
2023-03-10T14:16:50.872Z,97902.02
2023-03-10T14:19:45.159Z,97901.77
2023-03-10T14:22:40.172Z,97903.38
2023-03-10T14:25:20.133Z,97907.95
2023-03-10T14:27:55.513Z,97907.84
2023-03-10T14:30:29.745Z,97904.55
2023-03-10T14:33:00.825Z,97905.98
2023-03-10T14:35:30.111Z,97907.30
2023-03-10T14:38:02.272Z,97905.29
2023-03-10T14:40:32.462Z,97901.45
2023-03-10T14:43:02.577Z,97900.82
2023-03-10T14:45:37.919Z,97902.23
2023-03-10T14:48:15.193Z,97903.27
2023-03-10T14:50:53.728Z,97904.95
2023-03-10T14:53:27.593Z,97903.02
2023-03-10T14:56:05.338Z,97902.48
2023-03-10T14:58:50.641Z,97900.84
2023-03-10T15:01:22.495Z,97895.86
2023-03-10T15:03:56.648Z,97896.67
2023-03-10T15:06:32.109Z,97893.28
2023-03-10T15:09:07.538Z,97894.14
2023-03-10T15:11:37.847Z,97889.58
2023-03-10T15:14:21.098Z,97883.08
2023-03-10T15:16:58.663Z,97883.06
2023-03-10T15:19:30.544Z,97881.97
2023-03-10T15:22:01.636Z,97881.61
2023-03-10T15:24:34.870Z,97881.41
2023-03-10T15:27:13.717Z,97878.38
2023-03-10T15:29:46.892Z,97873.69
2023-03-10T15:32:15.608Z,97872.14
2023-03-10T15:34:48.044Z,97868.05
2023-03-10T15:37:19.638Z,97864.46
2023-03-10T15:39:53.456Z,97861.83
2023-03-10T15:42:36.313Z,97854.42
2023-03-10T15:45:08.463Z,97852.08
2023-03-10T15:47:41.991Z,97851.35
2023-03-10T15:50:13.187Z,97853.13
2023-03-10T15:52:58.799Z,97849.52
2023-03-10T15:55:36.332Z,97851.01
2023-03-10T15:58:11.999Z,97846.64
2023-03-10T16:00:44.082Z,97848.63
2023-03-10T16:03:18.262Z,97847.99
2023-03-10T16:05:50.569Z,97844.64
2023-03-10T16:08:30.157Z,97841.67
2023-03-10T16:11:01.700Z,97841.63
2023-03-10T16:13:47.960Z,97840.77
2023-03-10T16:16:22.750Z,97840.23
2023-03-10T16:19:11.157Z,97837.31
2023-03-10T16:21:49.501Z,97836.01
2023-03-10T16:24:25.423Z,97830.98
2023-03-10T16:27:02.697Z,97829.42
2023-03-10T16:29:41.128Z,97827.70
2023-03-10T16:32:14.820Z,97828.11
2023-03-10T16:34:47.717Z,97827.18
2023-03-10T16:37:26.932Z,97825.16
2023-03-10T16:39:57.162Z,97825.61
2023-03-10T16:42:39.994Z,97823.36
2023-03-10T16:45:37.674Z,97821.52
2023-03-10T16:48:32.978Z,97825.70
2023-03-10T16:51:29.249Z,97821.52
2023-03-10T16:54:30.565Z,97822.64
2023-03-10T17:00:35.004Z,97824.88
2023-03-10T17:03:48.791Z,97825.79
2023-03-10T17:10:13.750Z,97831.33
2023-03-10T17:12:43.925Z,97830.94
2023-03-10T17:18:13.539Z,97824.53
2023-03-10T17:20:52.998Z,97821.36
2023-03-10T17:23:24.828Z,97817.71
2023-03-10T17:25:54.557Z,97820.02
2023-03-10T17:28:30.748Z,97817.60
2023-03-10T17:31:12.037Z,97815.33
2023-03-10T17:33:43.670Z,97814.23
2023-03-10T17:36:15.522Z,97811.48
2023-03-10T17:38:45.149Z,97809.41
2023-03-10T17:41:16.510Z,97805.27
2023-03-10T17:43:48.511Z,97802.70
2023-03-10T17:46:26.917Z,97804.02
2023-03-10T17:49:09.365Z,97803.29
2023-03-10T17:51:44.053Z,97806.05
2023-03-10T17:54:19.843Z,97807.98
2023-03-10T17:56:57.272Z,97803.77
2023-03-10T17:59:33.165Z,97796.83
2023-03-10T18:02:05.634Z,97796.73
2023-03-10T18:05:05.076Z,97794.83
2023-03-10T18:07:33.975Z,97786.92
2023-03-10T18:10:12.753Z,97782.98
2023-03-10T18:12:44.905Z,97784.37
2023-03-10T18:15:26.147Z,97784.60
2023-03-10T18:18:04.343Z,97774.63
2023-03-10T18:20:36.424Z,97772.13
2023-03-10T18:23:08.420Z,97772.41
2023-03-10T18:25:45.872Z,97771.11
2023-03-10T18:28:23.167Z,97770.79
2023-03-10T18:30:57.561Z,97768.63
2023-03-10T18:33:31.901Z,97763.70
2023-03-10T18:36:14.418Z,97756.70
2023-03-10T18:38:56.829Z,97747.55
2023-03-10T18:41:34.080Z,97742.35
2023-03-10T18:44:08.995Z,97737.67
2023-03-10T18:46:38.699Z,97738.98
2023-03-10T18:49:13.509Z,97743.33
2023-03-10T18:51:42.636Z,97735.21
2023-03-10T18:54:11.651Z,97736.73
2023-03-10T18:56:45.564Z,97730.73
2023-03-10T18:59:22.934Z,97724.45
2023-03-10T19:01:52.439Z,97721.90
2023-03-10T19:04:27.298Z,97719.59
2023-03-10T19:07:19.630Z,97721.64
2023-03-10T19:09:56.697Z,97718.36
2023-03-10T19:12:29.900Z,97713.70
2023-03-10T19:15:07.502Z,97714.05
2023-03-10T19:17:39.425Z,97711.97
2023-03-10T19:20:12.745Z,97711.69
2023-03-10T19:22:51.094Z,97715.08
2023-03-10T19:25:23.185Z,97719.67
2023-03-10T19:27:52.455Z,97723.52
2023-03-10T19:30:22.119Z,97727.95
2023-03-10T19:32:55.519Z,97730.17
2023-03-10T19:35:34.087Z,97733.20
2023-03-10T19:38:13.925Z,97736.82
2023-03-10T19:40:49.786Z,97738.31
2023-03-10T19:43:19.165Z,97738.33
2023-03-10T19:46:20.775Z,97732.34
2023-03-10T19:48:54.019Z,97727.27
2023-03-10T19:51:26.188Z,97722.09
2023-03-10T19:53:57.198Z,97718.14
2023-03-10T19:56:26.390Z,97716.73
2023-03-10T19:58:56.096Z,97710.55
2023-03-10T20:01:27.391Z,97709.11
2023-03-10T20:04:02.214Z,97706.57
2023-03-10T20:06:31.257Z,97706.14
2023-03-10T20:09:11.824Z,97705.36
2023-03-10T20:11:41.660Z,97704.02
2023-03-10T20:14:24.534Z,97705.77
2023-03-10T20:17:01.543Z,97700.77
2023-03-10T20:19:31.944Z,97700.44
2023-03-10T20:22:13.977Z,97696.83
2023-03-10T20:24:46.873Z,97698.45
2023-03-10T20:27:18.356Z,97698.16
2023-03-10T20:30:37.052Z,97698.73
2023-03-10T20:33:23.363Z,97693.58
2023-03-10T20:35:52.372Z,97694.89
2023-03-10T20:38:26.674Z,97692.08
2023-03-10T20:41:02.622Z,97690.01
2023-03-10T20:43:43.629Z,97686.71
2023-03-10T20:46:26.746Z,97687.86
2023-03-10T20:52:17.384Z,97683.52
2023-03-10T20:55:02.861Z,97687.55
2023-03-10T20:57:38.360Z,97694.34
2023-03-10T21:00:13.535Z,97690.78
2023-03-10T21:02:54.740Z,97691.90
2023-03-10T21:05:28.107Z,97694.63
2023-03-10T21:08:02.818Z,97699.29
2023-03-10T21:10:41.873Z,97694.64
2023-03-10T21:13:51.123Z,97690.08
2023-03-10T21:16:32.388Z,97693.69
2023-03-10T21:19:08.152Z,97689.58
2023-03-10T21:21:48.979Z,97691.08
2023-03-10T21:24:28.494Z,97692.08
2023-03-10T21:27:02.733Z,97691.26
2023-03-10T21:29:34.634Z,97691.45
2023-03-10T21:32:06.048Z,97695.38
2023-03-10T21:34:35.659Z,97696.57
2023-03-10T21:37:27.453Z,97694.04
2023-03-10T21:40:13.080Z,97688.09
2023-03-10T21:42:54.278Z,97684.39
2023-03-10T21:45:40.955Z,97682.23
2023-03-10T21:48:23.685Z,97682.36
2023-03-10T21:51:11.524Z,97683.05
2023-03-10T21:53:58.944Z,97682.48
2023-03-10T21:56:36.931Z,97682.52
2023-03-10T21:59:16.726Z,97679.76
2023-03-10T22:02:10.420Z,97679.21
2023-03-10T22:05:01.985Z,97679.55
2023-03-10T22:07:54.201Z,97677.79
2023-03-10T22:10:41.924Z,97670.27
2023-03-10T22:13:17.656Z,97664.63
2023-03-10T22:15:54.679Z,97659.63
2023-03-10T22:18:29.862Z,97664.41
2023-03-10T22:21:03.954Z,97662.69
2023-03-10T22:23:44.578Z,97659.48
2023-03-10T22:26:38.534Z,97650.99
2023-03-10T22:29:11.535Z,97648.91
2023-03-10T22:31:51.584Z,97645.55
2023-03-10T22:34:35.434Z,97642.59
2023-03-10T22:37:16.837Z,97641.10
2023-03-10T22:39:55.461Z,97637.90
2023-03-10T22:42:25.088Z,97636.90
2023-03-10T22:45:03.570Z,97636.52
2023-03-10T22:47:42.778Z,97630.55
2023-03-10T22:50:45.678Z,97631.11
2023-03-10T22:53:23.078Z,97632.29
2023-03-10T22:55:51.589Z,97630.35
2023-03-10T22:58:30.222Z,97626.27
2023-03-10T23:01:04.430Z,97623.34
2023-03-10T23:03:34.371Z,97617.80
2023-03-10T23:06:13.304Z,97614.93
2023-03-10T23:08:43.639Z,97619.33
2023-03-10T23:11:15.169Z,97617.79
2023-03-10T23:13:49.653Z,97618.90
2023-03-10T23:16:19.442Z,97616.19
2023-03-10T23:18:48.542Z,97618.54
2023-03-10T23:21:22.385Z,97619.36
2023-03-10T23:23:50.796Z,97615.36
2023-03-10T23:26:23.952Z,97612.82
2023-03-10T23:28:55.190Z,97611.26
2023-03-10T23:31:23.982Z,97606.03
2023-03-10T23:33:52.761Z,97603.54
2023-03-10T23:36:21.190Z,97603.60
2023-03-10T23:38:49.944Z,97601.08
2023-03-10T23:41:18.619Z,97600.05
2023-03-10T23:43:47.511Z,97599.77
2023-03-10T23:46:16.297Z,97594.30
2023-03-10T23:48:45.277Z,97583.86
2023-03-10T23:51:16.874Z,97584.77
2023-03-10T23:53:48.329Z,97581.08
2023-03-10T23:56:16.844Z,97585.02
2023-03-10T23:58:48.461Z,97588.22
